Impacts TAF Board
For situational awareness. Not to be used for flight planning purposes.
IDs:

KJCT - Junction/Kimble Cnty, TX, US

Issued at 0520 UTC 19 Aug 2019
Updated at 0615 UTC 19 Aug 2019
Potential Impact None Slight Moderate High
Time0551Z 19/07Z 19/08Z 19/09Z 19/10Z 19/11Z 19/12Z 19/13Z 19/14Z 19/15Z 19/16Z 19/17Z 19/18Z 19/19Z>>
Type OBS PRVL PRVL PRVL PRVL PRVL PRVL PRVL PRVL PRVL PRVL PRVL PRVL PRVL
VIS 10 >6 >6 >6 >6 >6 >6 >6 >6 >6 >6 >6 >6 >6
CIG -- -- -- -- -- -- -- -- -- -- -- -- -- --
Cover CLR SKC SKC SKC SKC SKC SKC SKC SKC SKC SKC SKC SKC SKC
FltCat VFR VFR VFR VFR VFR VFR VFR VFR VFR VFR VFR VFR VFR VFR
WX -- -- -- -- -- -- -- -- -- -- -- -- -- --
WDir 160 150 150 150 150 150 150 150 150 180 180 180 180 180
WSpd 14 6 6 6 6 6 6 6 6 9 9 9 9 9
WGst 22 -- -- -- -- -- -- -- -- -- -- -- -- --
Raw TAF
KJCT 190520Z 1906/2006 15006KT P6SM SKC
  FM191500 18009KT P6SM SKC


Raw METAR
KJCT 190551Z AUTO 16014G22KT 10SM CLR 30/22 A2996 RMK AO2 SLP101 T03000222 10378 20300 403940244 51017
KJCT 190451Z AUTO 14011KT 10SM CLR 31/19 A2995 RMK AO2 SLP096 T03110194
KJCT 190351Z AUTO 16012KT 10SM CLR 32/19 A2992 RMK AO2 SLP090 T03220189

METAR Board
Radar Display
Forecast Discussion
For situational awareness. Not to be used for flight planning purposes.